Time;durP1;ratioP1;P1;durP2;ratioP2;P2;SDS_P1;SDS_P2;PMS_P1;PMS_P2;Temp;Humidity;BMP_temperature;BMP_pressure;BME280_temperature;BME280_humidity;BME280_pressure;Samples;Min_cycle;Max_cycle;Signal;HPM_P1;HPM_P2
2021/12/23 00:01:47;;;;;;;16.95;9.20;;;-0.60;99.90;;;;;;4972077;28;20064;-83
2021/12/23 00:04:12;;;;;;;17.77;9.65;;;-0.60;99.90;;;;;;4967730;28;20026;-83
2021/12/23 00:06:39;;;;;;;19.45;10.20;;;-0.50;99.90;;;;;;4980877;28;20031;-82
2021/12/23 00:09:05;;;;;;;16.98;10.38;;;-0.50;99.90;;;;;;4970755;28;20027;-83
2021/12/23 00:11:30;;;;;;;18.10;10.50;;;-0.60;99.90;;;;;;4997751;28;20030;-83
2021/12/23 00:14:02;;;;;;;17.95;9.50;;;-0.60;99.90;;;;;;4992725;28;20413;-83
2021/12/23 00:16:49;;;;;;;16.48;9.10;;;-0.60;99.90;;;;;;4994069;28;20057;-82
2021/12/23 00:19:48;;;;;;;19.13;10.55;;;-0.50;99.90;;;;;;4990449;28;20394;-82
2021/12/23 00:24:47;;;;;;;18.98;10.18;;;-0.60;99.90;;;;;;4980587;28;20453;-82
2021/12/23 00:27:14;;;;;;;15.55;9.25;;;-0.60;99.90;;;;;;4963652;28;20026;-82
2021/12/23 00:29:40;;;;;;;13.40;7.38;;;-0.60;99.90;;;;;;4989618;28;20045;-83
2021/12/23 00:32:08;;;;;;;17.45;10.15;;;-0.50;99.90;;;;;;4989685;28;20035;-82
2021/12/23 00:34:35;;;;;;;17.85;10.07;;;-0.50;99.90;;;;;;4989323;28;20034;-83
2021/12/23 00:37:01;;;;;;;19.75;12.25;;;-0.50;99.90;;;;;;4964057;28;20441;-82
2021/12/23 00:39:28;;;;;;;21.02;11.40;;;-0.70;99.90;;;;;;4994283;28;20618;-82
2021/12/23 00:41:55;;;;;;;20.55;11.85;;;-0.70;99.90;;;;;;4985404;28;20030;-81
2021/12/23 00:44:20;;;;;;;20.95;12.00;;;-0.70;99.90;;;;;;4950522;28;20026;-82
2021/12/23 00:46:46;;;;;;;17.25;9.57;;;-0.70;99.90;;;;;;4989095;28;20108;-82
2021/12/23 00:49:11;;;;;;;19.83;11.48;;;-0.60;99.90;;;;;;4996131;28;20407;-83
2021/12/23 00:51:37;;;;;;;16.67;9.70;;;-0.60;99.90;;;;;;4991058;28;20038;-83
2021/12/23 00:54:04;;;;;;;20.38;11.02;;;-0.60;99.90;;;;;;4988740;28;20096;-82
2021/12/23 00:56:31;;;;;;;16.90;9.45;;;-0.60;99.90;;;;;;4992249;28;20027;-83
2021/12/23 00:58:57;;;;;;;22.15;12.07;;;-0.60;99.90;;;;;;4982308;28;20046;-83
2021/12/23 01:01:23;;;;;;;14.35;8.38;;;-0.60;99.90;;;;;;4981550;28;20037;-83
2021/12/23 01:03:48;;;;;;;20.02;10.50;;;-0.60;99.90;;;;;;5003056;28;20395;-83
2021/12/23 01:06:14;;;;;;;21.42;12.25;;;-0.50;99.90;;;;;;4988605;28;20630;-83
2021/12/23 01:08:39;;;;;;;19.55;10.00;;;-0.60;99.90;;;;;;4988304;28;20029;-83
2021/12/23 01:11:05;;;;;;;19.35;11.25;;;-0.60;99.90;;;;;;4998632;28;20035;-83
2021/12/23 01:13:30;;;;;;;18.67;10.27;;;-0.60;99.90;;;;;;4970689;28;20030;-82
2021/12/23 01:16:00;;;;;;;20.98;11.20;;;-0.50;99.90;;;;;;4988486;28;20038;-83
2021/12/23 01:18:29;;;;;;;23.98;12.60;;;-0.60;99.90;;;;;;5005199;28;20041;-83
2021/12/23 01:21:03;;;;;;;21.00;12.40;;;-0.50;99.90;;;;;;4990371;28;20084;-83
2021/12/23 01:23:29;;;;;;;23.55;12.13;;;-0.60;99.90;;;;;;4998731;28;20037;-83
2021/12/23 01:25:55;;;;;;;22.63;10.93;;;-0.60;99.90;;;;;;4999661;28;20030;-83
2021/12/23 01:28:21;;;;;;;22.77;12.32;;;-0.50;99.90;;;;;;4989719;28;20034;-82
2021/12/23 01:30:46;;;;;;;21.17;11.82;;;-0.50;99.90;;;;;;4998583;28;20031;-83
2021/12/23 01:33:12;;;;;;;21.33;12.10;;;-0.50;99.90;;;;;;4986441;28;20026;-83
2021/12/23 01:35:38;;;;;;;27.20;11.88;;;-0.50;99.90;;;;;;5000541;28;20064;-83
2021/12/23 01:38:03;;;;;;;17.85;9.70;;;-0.50;99.90;;;;;;4990139;28;20640;-82
2021/12/23 01:40:29;;;;;;;17.88;10.82;;;-0.50;99.90;;;;;;5000920;28;20038;-83
2021/12/23 01:42:55;;;;;;;25.05;12.65;;;-0.40;99.90;;;;;;5003965;28;20041;-83
2021/12/23 01:45:23;;;;;;;24.35;13.48;;;-0.40;99.90;;;;;;4974202;28;20042;-83
2021/12/23 01:48:01;;;;;;;21.50;13.48;;;-0.50;99.90;;;;;;5006032;28;20592;-83
2021/12/23 01:50:28;;;;;;;19.70;11.70;;;-0.50;99.90;;;;;;4964988;28;20544;-83
2021/12/23 01:53:03;;;;;;;25.20;12.25;;;-0.50;99.90;;;;;;4988175;28;20038;-82
2021/12/23 01:55:28;;;;;;;26.10;14.30;;;-0.50;99.90;;;;;;4987362;28;20069;-83
2021/12/23 01:57:54;;;;;;;15.90;8.43;;;-0.50;99.90;;;;;;5006996;28;20084;-83
2021/12/23 02:00:20;;;;;;;23.35;11.98;;;-0.50;99.90;;;;;;4979413;28;20046;-83
2021/12/23 02:02:46;;;;;;;24.40;12.35;;;-0.40;99.90;;;;;;4984133;28;20041;-84
2021/12/23 02:05:12;;;;;;;23.38;11.95;;;-0.50;99.90;;;;;;4984975;28;20399;-83
2021/12/23 02:07:37;;;;;;;22.88;11.20;;;-0.50;99.90;;;;;;4989531;28;20049;-83
2021/12/23 02:10:04;;;;;;;23.55;11.77;;;-0.50;99.90;;;;;;5000940;28;20088;-83
2021/12/23 02:12:30;;;;;;;24.77;13.75;;;-0.60;99.90;;;;;;4968672;28;20371;-83
2021/12/23 02:14:55;;;;;;;23.38;12.48;;;-0.60;99.90;;;;;;4995806;28;20037;-83
2021/12/23 02:17:21;;;;;;;23.98;14.10;;;-0.70;99.90;;;;;;4981752;28;20030;-83
2021/12/23 02:19:47;;;;;;;21.58;11.13;;;-0.80;99.90;;;;;;4958501;28;20039;-83
2021/12/23 02:22:12;;;;;;;21.55;11.88;;;-0.80;99.90;;;;;;4971951;28;20026;-82
2021/12/23 02:24:38;;;;;;;20.05;10.75;;;-0.60;99.90;;;;;;4981777;28;20039;-83
2021/12/23 02:27:04;;;;;;;27.40;13.60;;;-0.50;99.90;;;;;;4985077;28;20031;-82
2021/12/23 02:29:29;;;;;;;24.77;13.73;;;-0.50;99.90;;;;;;4983923;28;20512;-83
2021/12/23 02:31:55;;;;;;;22.23;10.93;;;-0.60;99.90;;;;;;4982602;28;20486;-83
2021/12/23 02:34:21;;;;;;;26.98;13.60;;;-0.60;99.90;;;;;;4972390;28;20487;-82
2021/12/23 02:36:54;;;;;;;25.67;14.35;;;-0.50;99.90;;;;;;4969808;28;20093;-82
2021/12/23 02:39:20;;;;;;;25.48;13.45;;;-0.50;99.90;;;;;;5002814;28;20038;-82
2021/12/23 02:41:46;;;;;;;23.40;13.18;;;-0.50;99.90;;;;;;4986704;28;20509;-82
2021/12/23 02:44:12;;;;;;;25.25;14.02;;;-0.50;99.90;;;;;;4960014;28;20034;-83
2021/12/23 02:46:38;;;;;;;25.55;11.48;;;-0.50;99.90;;;;;;4981122;28;20064;-83
2021/12/23 02:49:03;;;;;;;24.23;13.93;;;-0.60;99.90;;;;;;4991857;28;20491;-82
2021/12/23 02:51:29;;;;;;;22.38;10.85;;;-0.50;99.90;;;;;;4979913;28;20507;-82
2021/12/23 02:53:54;;;;;;;29.92;14.05;;;-0.40;99.90;;;;;;4984956;28;20557;-83
2021/12/23 02:56:20;;;;;;;24.85;14.23;;;-0.30;99.90;;;;;;4999923;28;20061;-82
2021/12/23 02:58:46;;;;;;;25.92;14.25;;;-0.30;99.90;;;;;;5000078;28;20121;-83
2021/12/23 03:01:12;;;;;;;26.25;14.60;;;-0.40;99.90;;;;;;4978826;28;20065;-82
2021/12/23 03:03:38;;;;;;;28.20;15.32;;;-0.40;99.90;;;;;;4984509;28;20119;-82
2021/12/23 03:06:03;;;;;;;25.20;13.85;;;-0.40;99.90;;;;;;4989470;28;20092;-82
2021/12/23 03:08:36;;;;;;;19.88;10.85;;;-0.30;99.90;;;;;;4953066;28;20765;-83
2021/12/23 03:11:03;;;;;;;25.73;13.25;;;-0.30;99.90;;;;;;4960525;28;20098;-82
2021/12/23 03:13:29;;;;;;;28.08;14.95;;;-0.30;99.90;;;;;;4987860;28;20113;-82
2021/12/23 03:15:55;;;;;;;26.63;15.35;;;-0.30;99.90;;;;;;4991960;28;20112;-83
2021/12/23 03:18:20;;;;;;;23.30;12.18;;;-0.30;99.90;;;;;;4983666;28;20540;-83
2021/12/23 03:20:46;;;;;;;23.95;11.90;;;-0.30;99.90;;;;;;5003475;28;20109;-83
2021/12/23 03:23:11;;;;;;;21.70;11.27;;;-0.20;99.90;;;;;;4986522;28;20046;-83
2021/12/23 03:25:39;;;;;;;11.98;7.20;;;-0.20;99.90;;;;;;4996747;28;20030;-83
2021/12/23 03:28:05;;;;;;;22.10;12.30;;;-0.10;99.90;;;;;;4992208;28;20030;-83
2021/12/23 03:30:30;;;;;;;22.05;12.68;;;-0.10;99.90;;;;;;4984603;28;20441;-83
2021/12/23 03:32:56;;;;;;;25.02;13.32;;;-0.10;99.90;;;;;;4988992;28;20044;-83
2021/12/23 03:35:21;;;;;;;24.02;13.00;;;-0.10;99.90;;;;;;4982038;28;20122;-84
2021/12/23 03:37:47;;;;;;;23.20;12.63;;;0.00;99.90;;;;;;4986388;28;20034;-83
2021/12/23 03:40:12;;;;;;;28.33;14.88;;;0.00;99.90;;;;;;4985371;28;20037;-83
2021/12/23 03:42:39;;;;;;;30.27;16.13;;;0.00;99.90;;;;;;4986387;28;20043;-83
2021/12/23 03:45:07;;;;;;;28.75;15.82;;;0.10;99.90;;;;;;4965095;28;20030;-82
2021/12/23 03:47:33;;;;;;;26.50;15.80;;;0.10;99.90;;;;;;5002114;28;20049;-83
2021/12/23 03:49:59;;;;;;;28.85;14.60;;;0.00;99.90;;;;;;4998964;28;20740;-83
2021/12/23 03:52:25;;;;;;;31.27;17.02;;;0.00;99.90;;;;;;4966375;28;20037;-83
2021/12/23 03:54:50;;;;;;;29.58;15.93;;;0.10;99.90;;;;;;4981951;28;20043;-83
2021/12/23 03:57:16;;;;;;;25.75;10.60;;;0.10;99.90;;;;;;4964916;28;20465;-83
2021/12/23 03:59:41;;;;;;;28.27;15.95;;;0.00;99.90;;;;;;4982399;28;20402;-83
2021/12/23 04:02:07;;;;;;;27.40;16.02;;;0.00;99.90;;;;;;4992555;28;20536;-83
2021/12/23 04:04:32;;;;;;;30.17;15.88;;;0.00;99.90;;;;;;4988811;28;20512;-83
2021/12/23 04:06:58;;;;;;;26.95;15.43;;;-0.10;99.90;;;;;;4960904;28;20054;-83
2021/12/23 04:09:24;;;;;;;27.50;12.85;;;0.00;99.90;;;;;;4997468;28;20046;-83
2021/12/23 04:11:49;;;;;;;26.38;14.88;;;0.00;99.90;;;;;;4991488;28;20076;-83
2021/12/23 04:14:15;;;;;;;29.33;13.60;;;-0.10;99.90;;;;;;4982503;28;20034;-83
2021/12/23 04:16:40;;;;;;;30.00;12.77;;;-0.10;99.90;;;;;;4996233;28;20092;-83
2021/12/23 04:19:08;;;;;;;27.80;15.38;;;-0.10;99.90;;;;;;4963699;28;20042;-83
2021/12/23 04:21:35;;;;;;;17.63;7.75;;;-0.10;99.90;;;;;;4983004;28;20446;-83
2021/12/23 04:24:00;;;;;;;24.77;12.77;;;-0.10;99.90;;;;;;4962215;28;20037;-83
2021/12/23 04:26:26;;;;;;;23.48;11.90;;;-0.10;99.90;;;;;;5017146;28;20487;-83
2021/12/23 04:28:52;;;;;;;21.52;10.15;;;-0.10;99.90;;;;;;4999456;28;20113;-83
2021/12/23 04:31:19;;;;;;;22.27;11.35;;;-0.20;99.90;;;;;;4958045;28;20092;-83
2021/12/23 04:33:45;;;;;;;31.70;15.65;;;-0.10;99.90;;;;;;4990872;28;20067;-83
2021/12/23 04:36:11;;;;;;;28.63;15.13;;;-0.10;99.90;;;;;;4955618;28;20042;-83
2021/12/23 04:38:37;;;;;;;25.25;14.18;;;-0.20;99.90;;;;;;4987119;28;20476;-83
2021/12/23 04:41:03;;;;;;;23.92;14.38;;;-0.10;99.90;;;;;;4986824;28;20033;-83
2021/12/23 04:43:28;;;;;;;29.30;15.85;;;-0.20;99.90;;;;;;4957839;28;20109;-83
2021/12/23 04:45:54;;;;;;;21.00;11.15;;;-0.20;99.90;;;;;;4992407;28;20051;-83
2021/12/23 04:48:20;;;;;;;32.72;15.35;;;-0.30;99.90;;;;;;4988828;28;20042;-82
2021/12/23 04:50:45;;;;;;;29.77;16.15;;;-0.30;99.90;;;;;;4985058;28;20031;-83
2021/12/23 04:53:11;;;;;;;34.67;18.30;;;-0.30;99.90;;;;;;4968535;28;20386;-83
2021/12/23 04:55:36;;;;;;;30.10;16.63;;;-0.30;99.90;;;;;;4979938;28;20038;-83
2021/12/23 04:58:02;;;;;;;30.73;17.10;;;-0.30;99.90;;;;;;4987345;28;20029;-83
2021/12/23 05:00:27;;;;;;;26.85;15.45;;;-0.40;99.90;;;;;;5005039;28;20122;-83
2021/12/23 05:02:53;;;;;;;26.95;14.75;;;-0.40;99.90;;;;;;4999248;28;20162;-84
2021/12/23 05:05:19;;;;;;;32.05;17.52;;;-0.50;99.90;;;;;;4982474;28;20045;-83
2021/12/23 05:07:44;;;;;;;29.35;16.10;;;-0.60;99.90;;;;;;4983641;28;20041;-83
2021/12/23 05:10:11;;;;;;;32.28;17.50;;;-0.50;99.90;;;;;;4998560;28;20393;-83
2021/12/23 05:12:43;;;;;;;25.10;14.50;;;-0.50;99.90;;;;;;4986332;28;20455;-83
2021/12/23 05:15:10;;;;;;;27.58;14.27;;;-0.60;99.90;;;;;;4998234;28;20111;-83
2021/12/23 05:17:35;;;;;;;25.10;13.07;;;-0.50;99.90;;;;;;4990657;28;20034;-83
2021/12/23 05:20:01;;;;;;;29.05;14.43;;;-0.50;99.90;;;;;;4996028;28;20540;-83
2021/12/23 05:22:26;;;;;;;33.05;17.88;;;-0.50;99.90;;;;;;4987854;28;20117;-83
2021/12/23 05:24:52;;;;;;;27.70;15.60;;;-0.40;99.90;;;;;;4979520;28;20046;-83
2021/12/23 05:27:17;;;;;;;23.30;12.88;;;-0.40;99.90;;;;;;5000691;28;20038;-83
2021/12/23 05:29:43;;;;;;;31.73;17.52;;;-0.50;99.90;;;;;;4973787;28;20030;-83
2021/12/23 05:32:09;;;;;;;29.75;14.77;;;-0.50;99.90;;;;;;5005652;28;20037;-83
2021/12/23 05:34:34;;;;;;;26.58;14.40;;;-0.50;99.90;;;;;;4992045;28;20045;-83
2021/12/23 05:37:00;;;;;;;26.92;15.15;;;-0.50;99.90;;;;;;5000382;28;20029;-83
2021/12/23 05:39:25;;;;;;;28.52;13.25;;;-0.50;99.90;;;;;;4962688;28;20030;-83
2021/12/23 05:41:51;;;;;;;32.85;16.67;;;-0.50;99.90;;;;;;4998643;28;20113;-83
2021/12/23 05:44:16;;;;;;;30.80;16.52;;;-0.50;99.90;;;;;;4996331;28;20041;-83
2021/12/23 05:46:42;;;;;;;25.10;13.57;;;-0.50;99.90;;;;;;4997199;28;20079;-83
2021/12/23 05:49:07;;;;;;;35.15;17.95;;;-0.50;99.90;;;;;;4970801;28;20132;-83
2021/12/23 05:51:33;;;;;;;31.15;14.85;;;-0.40;99.90;;;;;;4979364;28;20043;-83
2021/12/23 05:53:59;;;;;;;32.80;17.42;;;-0.40;99.90;;;;;;4977369;28;20035;-83
2021/12/23 05:56:25;;;;;;;22.88;11.00;;;-0.40;99.90;;;;;;4966717;28;20910;-83
2021/12/23 05:58:50;;;;;;;31.33;17.73;;;-0.40;99.90;;;;;;4985192;28;20062;-83
2021/12/23 06:01:16;;;;;;;33.13;17.45;;;-0.30;99.90;;;;;;4998750;28;20034;-83
2021/12/23 06:03:42;;;;;;;24.70;14.43;;;-0.30;99.90;;;;;;4957606;28;20049;-83
2021/12/23 06:06:07;;;;;;;28.08;14.73;;;-0.30;99.90;;;;;;4979683;28;20180;-83
2021/12/23 06:08:33;;;;;;;34.03;15.55;;;-0.40;99.90;;;;;;4982775;28;20031;-83
2021/12/23 06:10:58;;;;;;;23.45;11.45;;;-0.40;99.90;;;;;;4951312;28;20078;-82
2021/12/23 06:13:24;;;;;;;26.65;14.57;;;-0.30;99.90;;;;;;4981071;28;20054;-83
2021/12/23 06:15:49;;;;;;;31.45;14.57;;;-0.30;99.90;;;;;;5000645;28;20032;-83
2021/12/23 06:18:21;;;;;;;28.02;14.93;;;-0.20;99.90;;;;;;4967067;28;20093;-83
2021/12/23 06:20:46;;;;;;;28.17;15.85;;;-0.10;99.90;;;;;;4988741;28;20121;-83
2021/12/23 06:23:12;;;;;;;38.13;19.00;;;-0.20;99.90;;;;;;4977653;28;20121;-83
2021/12/23 06:25:37;;;;;;;28.08;16.52;;;-0.20;99.90;;;;;;4965076;28;20463;-83
2021/12/23 06:28:03;;;;;;;26.35;15.23;;;-0.20;99.90;;;;;;4956391;28;20037;-83
2021/12/23 06:30:29;;;;;;;28.05;14.75;;;-0.20;99.90;;;;;;4970035;28;20032;-83
2021/12/23 06:32:55;;;;;;;32.03;18.00;;;-0.20;99.90;;;;;;4990667;28;20034;-83
2021/12/23 06:35:25;;;;;;;30.33;17.10;;;-0.20;99.90;;;;;;4977874;28;20124;-83
2021/12/23 06:37:51;;;;;;;32.05;17.00;;;-0.10;99.90;;;;;;4960076;28;20447;-83
2021/12/23 06:40:17;;;;;;;31.42;17.48;;;-0.10;99.90;;;;;;4966081;28;20121;-83
2021/12/23 06:42:43;;;;;;;29.95;15.10;;;-0.10;99.90;;;;;;4964427;28;20479;-83
2021/12/23 06:45:09;;;;;;;34.63;18.98;;;-0.10;99.90;;;;;;4960738;28;20113;-83
2021/12/23 06:47:35;;;;;;;32.58;18.02;;;-0.10;99.90;;;;;;4952094;28;20663;-83
2021/12/23 06:50:00;;;;;;;31.67;16.33;;;-0.10;99.90;;;;;;4995043;28;20088;-83
2021/12/23 06:52:26;;;;;;;32.03;15.80;;;-0.10;99.90;;;;;;4985445;28;20747;-83
2021/12/23 06:54:54;;;;;;;30.50;16.58;;;-0.10;99.90;;;;;;4994926;28;20034;-83
2021/12/23 06:57:20;;;;;;;31.02;15.00;;;-0.10;99.90;;;;;;4981625;28;20030;-84
2021/12/23 06:59:46;;;;;;;38.47;18.05;;;-0.10;99.90;;;;;;4958808;28;20058;-84
2021/12/23 07:02:11;;;;;;;32.40;17.33;;;-0.10;99.90;;;;;;4984771;28;20041;-83
2021/12/23 07:04:41;;;;;;;32.67;15.95;;;-0.10;99.90;;;;;;5000281;28;20065;-83
2021/12/23 07:07:12;;;;;;;23.73;12.15;;;-0.10;99.90;;;;;;4969226;28;20030;-84
2021/12/23 07:09:38;;;;;;;37.80;19.08;;;-0.10;99.90;;;;;;4973904;28;20061;-84
2021/12/23 07:12:05;;;;;;;29.17;16.42;;;-0.10;99.90;;;;;;4966818;28;20042;-84
2021/12/23 07:14:30;;;;;;;31.55;16.85;;;-0.10;99.90;;;;;;4986390;28;20088;-83
2021/12/23 07:16:56;;;;;;;23.17;11.90;;;-0.10;99.90;;;;;;4988495;28;20264;-84
2021/12/23 07:19:22;;;;;;;35.72;17.83;;;-0.10;99.90;;;;;;5004340;28;20038;-83
2021/12/23 07:21:47;;;;;;;35.90;18.13;;;-0.10;99.90;;;;;;4992131;28;20061;-87
2021/12/23 07:24:13;;;;;;;28.98;15.90;;;-0.10;99.90;;;;;;4995672;28;20462;-85
2021/12/23 07:26:38;;;;;;;33.38;16.65;;;-0.10;99.90;;;;;;4989817;28;20533;-87
2021/12/23 07:29:04;;;;;;;32.45;16.00;;;0.00;99.90;;;;;;4982704;28;20058;-87
2021/12/23 07:31:29;;;;;;;33.33;16.08;;;-0.10;99.90;;;;;;4977866;28;20395;-86
2021/12/23 07:33:55;;;;;;;33.17;15.93;;;0.00;99.90;;;;;;4988690;28;20046;-84
2021/12/23 07:36:22;;;;;;;35.08;16.73;;;0.00;99.90;;;;;;4972287;28;20033;-83
2021/12/23 07:38:48;;;;;;;32.33;16.48;;;0.00;99.90;;;;;;4984753;28;20026;-84
2021/12/23 07:41:14;;;;;;;30.52;16.23;;;0.00;99.90;;;;;;4976414;28;20557;-84
2021/12/23 07:46:07;;;;;;;28.75;15.52;;;0.00;99.90;;;;;;4987517;28;20034;-84
2021/12/23 07:48:33;;;;;;;35.95;19.50;;;0.00;99.90;;;;;;4952996;28;20039;-84
2021/12/23 07:51:02;;;;;;;29.27;14.20;;;0.00;99.90;;;;;;4987644;28;20033;-84
2021/12/23 07:53:28;;;;;;;32.35;16.20;;;0.00;99.90;;;;;;5009713;28;20513;-84
2021/12/23 07:55:53;;;;;;;33.65;16.40;;;0.00;99.90;;;;;;4997166;28;20031;-84
2021/12/23 07:58:19;;;;;;;27.58;14.80;;;0.10;99.90;;;;;;4981935;28;20041;-84
2021/12/23 08:00:44;;;;;;;26.40;13.77;;;0.10;99.90;;;;;;4985190;28;20043;-84
2021/12/23 08:03:10;;;;;;;36.28;17.65;;;0.10;99.90;;;;;;4984700;28;20490;-84
2021/12/23 08:05:36;;;;;;;27.10;15.63;;;0.10;99.90;;;;;;4982380;28;20410;-84
2021/12/23 08:08:02;;;;;;;30.35;16.27;;;0.20;99.90;;;;;;4988143;28;20160;-84
2021/12/23 08:10:27;;;;;;;36.95;17.27;;;0.10;99.90;;;;;;4985467;28;20038;-84
2021/12/23 08:12:53;;;;;;;31.70;16.98;;;0.10;99.90;;;;;;4988872;28;20034;-84
2021/12/23 08:15:18;;;;;;;37.80;18.70;;;0.10;99.90;;;;;;4997372;28;20133;-84
2021/12/23 08:17:44;;;;;;;30.38;15.77;;;0.10;99.90;;;;;;4978837;28;20066;-84
2021/12/23 08:20:11;;;;;;;28.10;15.15;;;0.10;99.90;;;;;;4985925;28;20501;-84
2021/12/23 08:22:36;;;;;;;38.53;20.00;;;0.20;99.90;;;;;;4976564;28;20446;-84
2021/12/23 08:25:02;;;;;;;35.08;15.68;;;0.20;99.90;;;;;;4991187;28;20034;-84
2021/12/23 08:27:29;;;;;;;35.88;16.52;;;0.20;99.90;;;;;;4980554;28;20129;-84
2021/12/23 08:29:55;;;;;;;27.90;14.73;;;0.20;99.90;;;;;;4991401;28;20546;-84
2021/12/23 08:32:20;;;;;;;28.00;15.43;;;0.20;99.90;;;;;;4978019;28;20037;-84
2021/12/23 08:34:46;;;;;;;31.70;17.95;;;0.30;99.90;;;;;;4983986;28;20564;-84
2021/12/23 08:37:12;;;;;;;34.60;17.27;;;0.30;99.90;;;;;;4987325;28;20035;-84
2021/12/23 08:39:41;;;;;;;34.15;16.50;;;0.30;99.90;;;;;;4958881;28;20049;-84
2021/12/23 08:42:07;;;;;;;30.58;15.55;;;0.30;99.90;;;;;;4960270;28;20030;-84
2021/12/23 08:44:33;;;;;;;28.77;16.13;;;0.40;99.90;;;;;;5002599;28;20193;-84
2021/12/23 08:46:58;;;;;;;29.55;15.88;;;0.40;99.90;;;;;;4992303;28;20054;-84
2021/12/23 08:49:24;;;;;;;37.42;18.23;;;0.40;99.90;;;;;;4987896;28;20045;-84
2021/12/23 08:51:49;;;;;;;32.53;17.70;;;0.40;99.90;;;;;;4964275;28;20035;-84
2021/12/23 08:54:16;;;;;;;34.03;17.92;;;0.40;99.90;;;;;;4964490;28;20113;-84
2021/12/23 08:56:42;;;;;;;33.60;14.43;;;0.50;99.90;;;;;;4989407;28;20105;-84
2021/12/23 08:59:07;;;;;;;32.30;16.48;;;0.50;99.90;;;;;;5001485;28;20507;-84
2021/12/23 09:01:33;;;;;;;32.83;17.00;;;0.50;99.90;;;;;;5001335;28;20446;-84
2021/12/23 09:03:59;;;;;;;28.05;15.02;;;0.60;99.90;;;;;;4992916;28;20026;-84
2021/12/23 09:06:27;;;;;;;36.97;18.83;;;0.60;99.90;;;;;;4964526;28;20057;-84
2021/12/23 09:08:54;;;;;;;28.10;14.40;;;0.60;99.90;;;;;;4976517;28;20502;-84
2021/12/23 09:14:42;;;;;;;28.45;15.27;;;0.70;99.90;;;;;;5007465;28;20037;-84
2021/12/23 09:17:07;;;;;;;37.05;19.02;;;0.70;99.90;;;;;;4975132;28;20030;-83
2021/12/23 09:19:58;;;;;;;30.80;15.65;;;0.70;99.90;;;;;;4990376;28;20089;-84
2021/12/23 09:22:48;;;;;;;29.33;15.77;;;0.70;99.90;;;;;;4984699;28;20044;-84
2021/12/23 09:25:23;;;;;;;28.58;17.27;;;0.90;99.90;;;;;;4983775;28;20557;-84
2021/12/23 09:27:59;;;;;;;29.25;16.15;;;0.80;99.90;;;;;;4991827;28;20034;-84
2021/12/23 09:33:10;;;;;;;32.50;16.33;;;1.00;99.90;;;;;;4986374;28;20053;-83
2021/12/23 09:38:27;;;;;;;29.48;15.07;;;1.10;99.90;;;;;;4988123;28;20031;-83
2021/12/23 09:40:53;;;;;;;30.10;15.15;;;1.10;99.90;;;;;;4973368;28;20030;-83
2021/12/23 09:43:19;;;;;;;31.67;15.30;;;1.30;99.90;;;;;;5003251;28;20536;-83
2021/12/23 09:45:46;;;;;;;33.70;18.27;;;1.30;99.90;;;;;;4968748;28;20035;-84
2021/12/23 09:48:12;;;;;;;32.55;15.93;;;1.40;99.90;;;;;;4957046;28;20042;-83
2021/12/23 09:50:39;;;;;;;28.15;14.27;;;1.40;99.90;;;;;;4981537;28;20134;-83
2021/12/23 09:53:05;;;;;;;31.50;16.88;;;1.50;99.90;;;;;;4963518;28;20685;-83
2021/12/23 09:55:31;;;;;;;29.20;15.68;;;1.50;99.90;;;;;;4992742;28;20145;-83
2021/12/23 09:57:57;;;;;;;32.95;15.38;;;1.60;99.90;;;;;;4980611;28;20044;-82
2021/12/23 10:00:25;;;;;;;26.02;14.85;;;1.60;99.90;;;;;;4990467;28;20105;-83
2021/12/23 10:02:51;;;;;;;28.67;14.93;;;1.70;99.90;;;;;;4972126;28;21117;-83
2021/12/23 10:05:35;;;;;;;29.73;14.23;;;1.70;99.90;;;;;;4981557;28;20033;-83
2021/12/23 10:08:01;;;;;;;26.35;14.07;;;1.70;99.90;;;;;;4996311;28;20585;-83
2021/12/23 10:10:42;;;;;;;29.38;14.07;;;1.80;99.90;;;;;;4983545;28;20034;-83
2021/12/23 10:38:28;;;;;;;24.67;12.45;;;2.40;99.90;;;;;;4982418;28;20038;-83
2021/12/23 10:40:57;;;;;;;24.67;9.52;;;2.50;99.90;;;;;;4984790;28;20409;-84
2021/12/23 10:43:27;;;;;;;25.48;14.52;;;2.50;99.90;;;;;;4970175;28;20652;-84
2021/12/23 10:45:58;;;;;;;15.15;7.60;;;2.60;99.90;;;;;;4988509;28;20037;-83
2021/12/23 10:48:26;;;;;;;28.40;13.25;;;2.70;99.90;;;;;;4965504;28;20035;-84
2021/12/23 10:51:01;;;;;;;19.35;10.70;;;2.80;99.90;;;;;;4991539;28;20035;-83
2021/12/23 10:59:02;;;;;;;22.45;10.45;;;3.00;99.90;;;;;;4989122;28;20108;-83
2021/12/23 11:01:28;;;;;;;21.90;10.50;;;3.00;99.90;;;;;;4971910;28;20089;-83
2021/12/23 11:04:00;;;;;;;24.45;11.40;;;3.10;99.90;;;;;;4942397;28;20518;-83
2021/12/23 11:06:35;;;;;;;22.38;11.02;;;3.10;99.90;;;;;;4966482;28;20050;-84
2021/12/23 11:12:15;;;;;;;19.10;10.02;;;3.40;99.90;;;;;;5024059;28;20099;-84
2021/12/23 11:29:05;;;;;;;21.33;10.27;;;3.70;99.90;;;;;;4973839;28;20045;-83
2021/12/23 11:35:32;;;;;;;18.92;8.32;;;3.80;99.90;;;;;;4993590;28;20038;-83
2021/12/23 11:37:10;;;;;;;20.30;10.60;;;3.90;99.90;;;;;;4985900;28;20041;-83
2021/12/23 11:42:25;;;;;;;19.92;10.15;;;3.90;99.90;;;;;;4992841;28;20044;-82
2021/12/23 11:44:51;;;;;;;12.88;6.07;;;4.10;99.90;;;;;;4974142;28;20042;-82
2021/12/23 11:47:17;;;;;;;18.88;9.93;;;4.10;99.90;;;;;;4967984;28;20026;-82
2021/12/23 11:49:46;;;;;;;19.95;8.27;;;4.20;99.90;;;;;;4957429;28;20141;-83
2021/12/23 11:52:11;;;;;;;18.05;8.07;;;4.30;99.90;;;;;;4972977;28;20446;-82
2021/12/23 11:54:39;;;;;;;18.23;8.07;;;4.30;99.90;;;;;;4961888;28;20164;-83
2021/12/23 11:57:23;;;;;;;19.95;11.15;;;4.20;99.90;;;;;;4965769;28;20035;-82
2021/12/23 12:03:08;;;;;;;14.82;8.32;;;4.40;99.90;;;;;;5015209;28;20045;-82
2021/12/23 12:05:34;;;;;;;12.63;7.57;;;4.40;99.90;;;;;;4982671;28;20042;-83
2021/12/23 12:08:15;;;;;;;5.47;3.22;;;4.50;99.90;;;;;;4957042;28;20049;-83
2021/12/23 12:10:42;;;;;;;20.35;9.20;;;4.40;99.90;;;;;;5001156;28;20030;-82
2021/12/23 12:13:09;;;;;;;11.68;6.97;;;4.50;99.90;;;;;;4972712;28;20136;-82
2021/12/23 12:15:42;;;;;;;17.35;8.50;;;4.50;99.90;;;;;;4998011;28;20049;-82
2021/12/23 12:18:16;;;;;;;10.98;5.07;;;4.60;99.90;;;;;;4999637;28;20038;-82
2021/12/23 12:20:48;;;;;;;7.43;4.13;;;4.60;99.90;;;;;;4973770;28;20046;-82
2021/12/23 12:23:19;;;;;;;17.85;10.55;;;4.60;99.90;;;;;;4967140;28;20037;-82
2021/12/23 12:25:48;;;;;;;20.77;8.32;;;4.70;99.90;;;;;;4982556;28;20577;-82
2021/12/23 12:28:18;;;;;;;10.90;5.82;;;4.80;99.90;;;;;;4979094;28;20030;-81
2021/12/23 12:30:55;;;;;;;22.75;11.32;;;4.70;99.90;;;;;;4963428;28;20066;-81
2021/12/23 12:33:24;;;;;;;19.27;9.35;;;4.70;99.90;;;;;;4980632;28;20491;-82
2021/12/23 12:36:02;;;;;;;19.83;8.48;;;4.70;99.90;;;;;;5007852;28;20042;-82
2021/12/23 12:38:33;;;;;;;13.48;5.70;;;4.70;99.90;;;;;;4977504;28;20529;-82
2021/12/23 12:41:08;;;;;;;6.57;3.88;;;4.70;99.90;;;;;;4961809;28;20046;-82
2021/12/23 12:46:12;;;;;;;15.43;7.75;;;4.80;99.90;;;;;;4988625;28;20034;-82
2021/12/23 12:49:00;;;;;;;23.92;10.90;;;4.80;99.90;;;;;;4982567;28;20659;-82
2021/12/23 12:51:33;;;;;;;20.95;8.77;;;4.90;99.90;;;;;;4994515;28;20034;-82
2021/12/23 12:54:12;;;;;;;15.88;8.25;;;4.90;99.90;;;;;;4984816;28;20148;-81
2021/12/23 12:56:46;;;;;;;14.40;7.13;;;4.90;99.90;;;;;;4965218;28;20027;-81
2021/12/23 12:59:12;;;;;;;17.23;9.60;;;4.90;99.90;;;;;;4970692;28;20038;-82
2021/12/23 13:01:42;;;;;;;19.25;9.90;;;4.90;99.90;;;;;;4971487;28;20041;-81
2021/12/23 13:04:32;;;;;;;13.73;6.75;;;4.90;99.90;;;;;;4979727;28;20099;-82
2021/12/23 13:06:59;;;;;;;20.17;9.23;;;5.00;99.90;;;;;;4978586;28;20080;-82
2021/12/23 13:09:29;;;;;;;20.02;9.65;;;5.00;99.90;;;;;;4974951;28;20126;-82
2021/12/23 13:11:59;;;;;;;21.95;12.13;;;5.00;99.90;;;;;;4979990;28;20041;-83
2021/12/23 13:15:15;;;;;;;16.13;8.30;;;5.00;99.90;;;;;;4998125;28;20034;-82
2021/12/23 13:17:52;;;;;;;14.57;8.23;;;5.00;99.90;;;;;;4989820;28;20031;-82
2021/12/23 13:20:17;;;;;;;20.85;11.13;;;5.10;99.90;;;;;;4958786;28;20397;-82
2021/12/23 13:22:45;;;;;;;19.13;9.60;;;5.10;99.90;;;;;;4985477;28;20030;-82
2021/12/23 13:25:11;;;;;;;20.02;10.75;;;5.10;99.90;;;;;;4981794;28;20026;-82
2021/12/23 13:27:41;;;;;;;20.75;10.77;;;5.20;99.90;;;;;;4985795;28;20575;-83
2021/12/23 13:30:09;;;;;;;19.40;11.00;;;5.20;99.90;;;;;;4959372;28;20038;-83
2021/12/23 13:32:36;;;;;;;26.58;13.57;;;5.20;99.90;;;;;;4967640;28;20042;-82
2021/12/23 13:35:12;;;;;;;17.67;8.10;;;5.20;99.90;;;;;;4974200;28;20097;-83
2021/12/23 13:37:42;;;;;;;13.70;7.60;;;5.30;99.90;;;;;;4975167;28;21083;-83
2021/12/23 13:40:10;;;;;;;21.00;11.77;;;5.30;99.90;;;;;;4984700;28;20038;-83
2021/12/23 13:42:40;;;;;;;21.52;11.13;;;5.30;99.90;;;;;;4967316;28;20085;-83
2021/12/23 13:45:06;;;;;;;24.13;13.00;;;5.30;99.90;;;;;;4979707;28;20080;-83
2021/12/23 13:47:33;;;;;;;20.48;11.57;;;5.30;99.90;;;;;;5007141;28;20041;-83
2021/12/23 13:49:59;;;;;;;27.88;11.38;;;5.40;99.90;;;;;;4957120;28;20121;-83